createdAt,value
2019-03-25T00:00:53.838Z,4.02
2019-03-25T00:03:25.188Z,3.94
2019-03-25T00:05:56.019Z,3.78
2019-03-25T00:08:26.649Z,3.95
2019-03-25T00:10:57.279Z,3.89
2019-03-25T00:13:28.353Z,3.94
2019-03-25T00:15:59.055Z,3.96
2019-03-25T00:18:29.891Z,3.92
2019-03-25T00:21:00.620Z,3.89
2019-03-25T00:23:31.561Z,3.85
2019-03-25T00:26:02.597Z,3.94
2019-03-25T00:28:33.337Z,3.83
2019-03-25T00:31:04.270Z,3.77
2019-03-25T00:33:35.514Z,3.76
2019-03-25T00:36:06.531Z,3.78
2019-03-25T00:38:37.384Z,3.69
2019-03-25T00:41:08.138Z,3.62
2019-03-25T00:43:38.954Z,3.75
2019-03-25T00:46:10.401Z,3.77
2019-03-25T00:48:41.137Z,3.60
2019-03-25T00:51:12.586Z,3.73
2019-03-25T00:53:42.906Z,3.77
2019-03-25T00:56:14.049Z,3.71
2019-03-25T00:58:44.680Z,3.76
2019-03-25T01:01:15.517Z,3.73
2019-03-25T01:03:47.120Z,3.61
2019-03-25T01:06:17.575Z,3.44
2019-03-25T01:08:49.844Z,3.41
2019-03-25T01:11:20.278Z,3.27
2019-03-25T01:13:51.963Z,3.15
2019-03-25T01:16:23.389Z,3.10
2019-03-25T01:18:54.226Z,3.10
2019-03-25T01:21:24.960Z,3.09
2019-03-25T01:23:55.689Z,3.11
2019-03-25T01:26:27.137Z,3.36
2019-03-25T01:28:59.434Z,3.32
2019-03-25T01:31:30.139Z,3.31
2019-03-25T01:34:00.835Z,3.27
2019-03-25T01:36:32.833Z,3.65
2019-03-25T01:39:03.878Z,3.58
2019-03-25T01:41:36.236Z,3.49
2019-03-25T01:44:06.771Z,3.48
2019-03-25T01:46:37.504Z,3.31
2019-03-25T01:49:08.343Z,3.20
2019-03-25T01:51:39.073Z,3.27
2019-03-25T01:54:10.009Z,3.20
2019-03-25T01:56:41.005Z,3.01
2019-03-25T01:59:12.905Z,2.85
2019-03-25T02:01:43.641Z,2.77
2019-03-25T02:04:14.681Z,2.71
2019-03-25T02:06:45.719Z,2.73
2019-03-25T02:09:16.353Z,2.67
2019-03-25T02:11:47.899Z,2.66
2019-03-25T02:14:18.943Z,2.68
2019-03-25T02:16:49.262Z,2.57
2019-03-25T02:19:19.993Z,2.50
2019-03-25T02:21:51.243Z,2.50
2019-03-25T02:24:22.381Z,2.45
2019-03-25T02:26:54.856Z,2.40
2019-03-25T02:29:26.107Z,2.33
2019-03-25T02:31:56.936Z,2.03
2019-03-25T02:34:27.667Z,2.25
2019-03-25T02:36:58.398Z,2.26
2019-03-25T02:39:29.803Z,2.22
2019-03-25T02:42:00.685Z,2.28
2019-03-25T02:44:32.003Z,2.25
2019-03-25T02:47:02.766Z,1.97
2019-03-25T02:49:33.598Z,2.08
2019-03-25T02:52:04.339Z,2.05
2019-03-25T02:54:35.473Z,2.03
2019-03-25T02:57:06.316Z,2.01
2019-03-25T02:59:37.755Z,1.96
2019-03-25T03:02:08.290Z,1.89
2019-03-25T03:04:38.855Z,1.81
2019-03-25T03:07:09.647Z,1.78
2019-03-25T03:09:40.380Z,1.80
2019-03-25T03:12:11.114Z,1.75
2019-03-25T03:14:42.871Z,1.73
2019-03-25T03:17:13.140Z,1.83
2019-03-25T03:19:44.527Z,1.68
2019-03-25T03:22:15.167Z,1.72
2019-03-25T03:24:45.805Z,1.62
2019-03-25T03:27:16.436Z,1.62
2019-03-25T03:29:47.263Z,1.54
2019-03-25T03:32:18.019Z,1.53
2019-03-25T03:34:48.735Z,1.57
2019-03-25T03:37:19.668Z,1.56
2019-03-25T03:39:50.601Z,1.58
2019-03-25T03:42:21.243Z,1.55
2019-03-25T03:44:51.555Z,1.54
2019-03-25T03:47:22.291Z,1.52
2019-03-25T03:49:52.966Z,1.53
2019-03-25T03:52:24.347Z,1.56
2019-03-25T03:54:55.916Z,1.54
2019-03-25T03:57:27.516Z,1.58
2019-03-25T03:59:57.919Z,1.63
2019-03-25T04:02:29.744Z,1.69
2019-03-25T04:05:00.525Z,1.68
2019-03-25T04:07:33.473Z,1.76
2019-03-25T04:10:06.046Z,1.80
2019-03-25T04:12:37.496Z,1.78
2019-03-25T04:15:08.017Z,1.85
2019-03-25T04:17:40.836Z,1.92
2019-03-25T04:20:11.639Z,2.01
2019-03-25T04:22:42.475Z,2.08
2019-03-25T04:25:16.048Z,2.16
2019-03-25T04:27:46.398Z,2.18
2019-03-25T04:30:17.031Z,2.33
2019-03-25T04:32:48.125Z,2.48
2019-03-25T04:35:20.341Z,2.59
2019-03-25T04:37:50.759Z,2.69
2019-03-25T04:40:21.493Z,2.76
2019-03-25T04:42:52.114Z,2.91
2019-03-25T04:45:22.847Z,2.98
2019-03-25T04:47:53.376Z,3.11
2019-03-25T04:50:24.109Z,3.21
2019-03-25T04:52:54.840Z,3.36
2019-03-25T04:55:25.575Z,3.41
2019-03-25T04:57:56.122Z,3.53
2019-03-25T05:00:37.584Z,3.64
2019-03-25T05:03:08.225Z,3.70
2019-03-25T05:05:40.282Z,3.79
2019-03-25T05:08:10.842Z,3.90
2019-03-25T05:10:41.440Z,3.99
2019-03-25T05:13:12.378Z,4.13
2019-03-25T05:15:43.108Z,4.25
2019-03-25T05:18:13.942Z,4.39
2019-03-25T05:20:44.578Z,4.53
2019-03-25T05:23:15.750Z,4.66
2019-03-25T05:25:45.947Z,4.80
2019-03-25T05:28:16.971Z,4.96
2019-03-25T05:30:47.810Z,5.10
2019-03-25T05:33:18.543Z,5.25
2019-03-25T05:35:51.736Z,5.38
2019-03-25T05:38:23.601Z,5.45
2019-03-25T05:40:54.058Z,5.55
2019-03-25T05:43:25.160Z,5.71
2019-03-25T05:45:55.962Z,5.79
2019-03-25T05:48:26.827Z,5.84
2019-03-25T05:50:57.562Z,5.93
2019-03-25T05:53:28.430Z,6.01
2019-03-25T05:55:59.041Z,6.06
2019-03-25T05:58:30.782Z,6.21
2019-03-25T06:01:01.413Z,6.33
2019-03-25T06:03:32.658Z,6.52
2019-03-25T06:06:03.494Z,6.70
2019-03-25T06:08:35.045Z,6.82
2019-03-25T06:11:05.777Z,7.01
2019-03-25T06:13:36.919Z,7.16
2019-03-25T06:16:07.648Z,7.32
2019-03-25T06:18:38.895Z,7.50
2019-03-25T06:21:12.183Z,7.66
2019-03-25T06:23:42.917Z,7.82
2019-03-25T06:26:13.653Z,7.95
2019-03-25T06:28:44.995Z,8.18
2019-03-25T06:31:15.731Z,8.34
2019-03-25T06:33:47.079Z,8.50
2019-03-25T06:36:17.722Z,8.54
2019-03-25T06:38:48.641Z,8.60
2019-03-25T06:41:19.786Z,8.45
2019-03-25T06:43:51.755Z,8.85
2019-03-25T06:46:22.415Z,8.93
2019-03-25T06:48:52.996Z,9.15
2019-03-25T06:51:23.845Z,9.29
2019-03-25T06:53:54.472Z,9.37
2019-03-25T06:56:25.110Z,9.46
2019-03-25T06:58:55.845Z,9.51
2019-03-25T07:01:26.564Z,9.60
2019-03-25T07:03:57.090Z,9.72
2019-03-25T07:06:28.648Z,9.93
2019-03-25T07:08:59.282Z,10.07
2019-03-25T07:11:30.791Z,10.23
2019-03-25T07:14:01.357Z,10.18
2019-03-25T07:16:32.087Z,10.41
2019-03-25T07:19:02.922Z,10.67
2019-03-25T07:21:34.169Z,10.96
2019-03-25T07:24:05.106Z,11.02
2019-03-25T07:26:35.731Z,11.29
2019-03-25T07:29:06.573Z,11.19
2019-03-25T07:31:38.219Z,11.41
2019-03-25T07:34:09.164Z,11.73
2019-03-25T07:36:40.213Z,12.06
2019-03-25T07:39:11.635Z,11.90
2019-03-25T07:41:42.050Z,12.03
2019-03-25T07:44:12.854Z,12.12
2019-03-25T07:46:43.543Z,12.49
2019-03-25T07:49:15.400Z,12.70
2019-03-25T07:51:46.540Z,12.99
2019-03-25T07:54:17.177Z,13.27
2019-03-25T07:56:48.748Z,13.34
2019-03-25T07:59:20.252Z,13.46
2019-03-25T08:01:50.916Z,13.55
2019-03-25T08:04:21.548Z,13.71
2019-03-25T08:06:52.281Z,13.19
2019-03-25T08:09:23.718Z,13.21
2019-03-25T08:11:54.108Z,13.53
2019-03-25T08:14:24.894Z,14.08
2019-03-25T08:16:55.707Z,14.33
2019-03-25T08:19:26.366Z,14.06
2019-03-25T08:21:56.999Z,13.43
2019-03-25T08:24:29.461Z,13.34
2019-03-25T08:27:00.070Z,13.04
2019-03-25T08:29:30.806Z,13.02
2019-03-25T08:32:01.545Z,13.12
2019-03-25T08:34:32.680Z,13.98
2019-03-25T08:37:04.503Z,14.30
2019-03-25T08:39:35.168Z,14.08
2019-03-25T08:42:05.695Z,14.45
2019-03-25T08:44:36.942Z,14.47
2019-03-25T08:47:07.777Z,13.50
2019-03-25T08:49:38.508Z,13.02
2019-03-25T08:52:09.161Z,13.75
2019-03-25T08:54:39.972Z,13.93
2019-03-25T08:57:11.854Z,14.81
2019-03-25T09:02:24.358Z,14.06
2019-03-25T09:04:54.954Z,12.88
2019-03-25T09:07:25.617Z,12.88
2019-03-25T09:09:56.218Z,14.45
2019-03-25T09:12:26.984Z,14.55
2019-03-25T09:14:57.716Z,14.78
2019-03-25T09:17:28.854Z,14.41
2019-03-25T09:19:59.513Z,13.88
2019-03-25T09:22:30.321Z,14.13
2019-03-25T09:25:01.201Z,13.94
2019-03-25T09:27:32.015Z,14.86
2019-03-25T09:30:03.619Z,15.59
2019-03-25T09:32:34.682Z,15.25
2019-03-25T09:35:07.081Z,15.44
2019-03-25T09:37:38.215Z,16.03
2019-03-25T09:40:08.825Z,15.43
2019-03-25T09:42:40.273Z,16.14
2019-03-25T09:45:11.103Z,15.80
2019-03-25T09:47:44.198Z,15.67
2019-03-25T09:50:16.156Z,16.34
2019-03-25T09:52:47.193Z,16.88
2019-03-25T09:55:18.420Z,17.84
2019-03-25T09:57:49.277Z,18.26
2019-03-25T10:00:24.320Z,18.29
2019-03-25T10:02:54.334Z,17.66
2019-03-25T10:05:24.873Z,18.33
2019-03-25T10:07:55.584Z,18.34
2019-03-25T10:10:26.832Z,18.69
2019-03-25T10:12:57.257Z,19.74
2019-03-25T10:15:28.006Z,18.98
2019-03-25T10:17:58.996Z,18.70
2019-03-25T10:20:31.807Z,18.07
2019-03-25T10:23:02.537Z,16.91
2019-03-25T10:25:33.273Z,17.49
2019-03-25T10:28:04.515Z,17.54
2019-03-25T10:30:35.864Z,18.20
2019-03-25T10:33:06.598Z,17.16
2019-03-25T10:35:37.256Z,16.38
2019-03-25T10:38:19.186Z,16.17
2019-03-25T10:40:41.146Z,17.04
2019-03-25T10:43:11.714Z,18.22
2019-03-25T10:45:42.307Z,19.50
2019-03-25T10:48:13.758Z,19.87
2019-03-25T10:50:44.182Z,19.75
2019-03-25T10:53:15.014Z,19.84
2019-03-25T10:55:49.327Z,19.44
2019-03-25T10:58:21.199Z,20.16
2019-03-25T11:00:51.740Z,18.89
2019-03-25T11:03:22.548Z,18.84
2019-03-25T11:05:53.200Z,17.40
2019-03-25T11:08:26.369Z,17.08
2019-03-25T11:10:58.408Z,17.04
2019-03-25T11:13:28.720Z,17.28
2019-03-25T11:16:00.313Z,17.50
2019-03-25T11:18:31.156Z,17.36
2019-03-25T11:21:01.841Z,19.58
2019-03-25T11:23:32.708Z,21.40
2019-03-25T11:26:03.349Z,21.97
2019-03-25T11:28:34.079Z,22.71
2019-03-25T11:31:04.702Z,22.17
2019-03-25T11:33:35.435Z,22.12
2019-03-25T11:36:06.683Z,21.30
2019-03-25T11:38:37.116Z,21.45
2019-03-25T11:41:07.850Z,22.97
2019-03-25T11:43:38.672Z,24.60
2019-03-25T11:46:10.128Z,24.63
2019-03-25T11:48:40.782Z,24.14
2019-03-25T11:51:11.854Z,23.84
2019-03-25T11:53:42.431Z,23.71
2019-03-25T11:56:13.158Z,21.29
2019-03-25T11:58:45.936Z,20.73
2019-03-25T12:01:16.877Z,21.81
2019-03-25T12:03:47.712Z,21.93
2019-03-25T12:06:19.083Z,23.22
2019-03-25T12:08:49.753Z,23.16
2019-03-25T12:11:20.526Z,22.36
2019-03-25T12:13:51.258Z,22.64
2019-03-25T12:16:23.195Z,22.27
2019-03-25T12:18:53.720Z,21.89
2019-03-25T12:21:24.599Z,23.49
2019-03-25T12:23:55.214Z,25.52
2019-03-25T12:26:26.247Z,26.25
2019-03-25T12:28:57.805Z,27.37
2019-03-25T12:31:29.511Z,24.91
2019-03-25T12:34:00.082Z,24.97
2019-03-25T12:36:30.923Z,26.21
2019-03-25T12:39:01.651Z,26.87
2019-03-25T12:41:32.328Z,25.19
2019-03-25T12:44:03.625Z,26.22
2019-03-25T12:46:34.259Z,26.42
2019-03-25T12:49:04.995Z,27.27
2019-03-25T12:51:35.722Z,25.98
2019-03-25T12:54:07.173Z,25.57
2019-03-25T12:56:38.105Z,25.01
2019-03-25T12:59:09.787Z,23.61
2019-03-25T13:01:52.156Z,23.23
2019-03-25T13:04:13.390Z,21.37
2019-03-25T13:06:44.220Z,20.20
2019-03-25T13:09:14.851Z,20.24
2019-03-25T13:11:45.582Z,19.23
2019-03-25T13:14:16.632Z,19.62
2019-03-25T13:16:49.763Z,19.53
2019-03-25T13:19:20.544Z,18.07
2019-03-25T13:21:52.268Z,17.66
2019-03-25T13:24:23.036Z,18.19
2019-03-25T13:26:53.870Z,19.02
2019-03-25T13:29:25.113Z,19.48
2019-03-25T13:31:55.438Z,20.50
2019-03-25T13:34:26.077Z,19.57
2019-03-25T13:36:57.106Z,17.82
2019-03-25T13:39:27.736Z,18.91
2019-03-25T13:41:58.470Z,19.98
2019-03-25T13:44:29.410Z,19.12
2019-03-25T13:47:00.243Z,19.37
2019-03-25T13:49:31.791Z,19.35
2019-03-25T13:52:04.162Z,18.94
2019-03-25T13:54:35.408Z,18.37
2019-03-25T13:57:08.096Z,16.63
2019-03-25T13:59:38.424Z,15.62
2019-03-25T14:02:09.142Z,15.01
2019-03-25T14:04:41.514Z,14.65
2019-03-25T14:07:13.783Z,14.18
2019-03-25T14:09:46.359Z,14.04
2019-03-25T14:12:17.095Z,13.67
2019-03-25T14:14:49.365Z,13.26
2019-03-25T14:17:20.097Z,13.00
2019-03-25T14:19:51.540Z,13.12
2019-03-25T14:22:23.402Z,13.11
2019-03-25T14:24:54.027Z,12.99
2019-03-25T14:27:24.758Z,12.78
2019-03-25T14:29:55.494Z,12.82
2019-03-25T14:32:27.774Z,12.77
2019-03-25T14:34:58.855Z,12.78
2019-03-25T14:37:29.639Z,12.63
2019-03-25T14:40:00.887Z,12.52
2019-03-25T14:42:31.823Z,12.27
2019-03-25T14:45:03.075Z,12.65
2019-03-25T14:47:33.810Z,12.80
2019-03-25T14:50:05.802Z,12.60
2019-03-25T14:52:36.288Z,12.64
2019-03-25T14:55:10.511Z,12.59
2019-03-25T14:57:41.339Z,12.54
2019-03-25T15:00:12.479Z,12.19
2019-03-25T15:02:43.213Z,12.00
2019-03-25T15:05:14.147Z,11.83
2019-03-25T15:07:44.876Z,11.77
2019-03-25T15:10:18.173Z,11.59
2019-03-25T15:12:49.210Z,11.56
2019-03-25T15:15:19.943Z,11.58
2019-03-25T15:17:50.677Z,11.52
2019-03-25T15:20:21.405Z,11.58
2019-03-25T15:22:52.249Z,11.48
2019-03-25T15:25:23.077Z,11.40
2019-03-25T15:27:54.259Z,11.34
2019-03-25T15:30:35.208Z,11.31
2019-03-25T15:32:57.429Z,11.29
2019-03-25T15:35:28.466Z,11.26
2019-03-25T15:38:00.125Z,11.34
2019-03-25T15:40:31.328Z,11.29
2019-03-25T15:43:02.302Z,11.26
2019-03-25T15:45:33.046Z,11.16
2019-03-25T15:48:04.591Z,11.09
2019-03-25T15:50:35.814Z,11.08
2019-03-25T15:53:06.978Z,11.02
2019-03-25T15:55:37.600Z,10.93
2019-03-25T15:58:08.989Z,10.94
2019-03-25T16:00:47.771Z,10.92
2019-03-25T16:03:12.453Z,10.90
2019-03-25T16:05:43.497Z,10.87
2019-03-25T16:08:14.156Z,10.88
2019-03-25T16:10:44.973Z,10.94
2019-03-25T16:13:18.226Z,10.89
2019-03-25T16:15:48.984Z,10.92
2019-03-25T16:18:25.556Z,10.90
2019-03-25T16:20:57.007Z,10.89
2019-03-25T16:23:28.008Z,10.91
2019-03-25T16:25:58.883Z,10.89
2019-03-25T16:28:29.723Z,10.88
2019-03-25T16:31:00.446Z,10.84
2019-03-25T16:33:31.073Z,10.80
2019-03-25T16:36:01.714Z,10.78
2019-03-25T16:38:33.067Z,10.80
2019-03-25T16:41:04.002Z,10.74
2019-03-25T16:43:34.676Z,10.69
2019-03-25T16:46:05.420Z,10.67
2019-03-25T16:48:36.314Z,10.69
2019-03-25T16:51:07.149Z,10.69
2019-03-25T16:53:37.762Z,10.70
2019-03-25T16:56:08.936Z,10.66
2019-03-25T16:58:39.681Z,10.35
2019-03-25T17:01:10.718Z,10.15
2019-03-25T17:03:41.432Z,10.13
2019-03-25T17:06:12.405Z,10.10
2019-03-25T17:08:43.210Z,10.09
2019-03-25T17:11:13.982Z,10.12
2019-03-25T17:13:44.951Z,10.14
2019-03-25T17:16:15.589Z,10.12
2019-03-25T17:18:46.829Z,9.92
2019-03-25T17:21:17.474Z,9.93
2019-03-25T17:23:48.650Z,9.75
2019-03-25T17:26:19.199Z,9.56
2019-03-25T17:28:49.752Z,9.34
2019-03-25T17:31:21.411Z,9.16
2019-03-25T17:33:54.817Z,8.89
2019-03-25T17:36:25.413Z,8.77
2019-03-25T17:38:56.060Z,8.70
2019-03-25T17:41:26.752Z,8.53
2019-03-25T17:43:57.532Z,8.47
2019-03-25T17:46:28.256Z,8.51
2019-03-25T17:48:59.805Z,8.50
2019-03-25T17:51:30.540Z,8.50
2019-03-25T17:54:01.799Z,8.42
2019-03-25T17:56:32.152Z,8.38
2019-03-25T17:59:02.841Z,8.26
2019-03-25T18:01:34.146Z,8.23
2019-03-25T18:04:05.336Z,8.26
2019-03-25T18:06:36.514Z,8.19
2019-03-25T18:09:07.816Z,8.23
2019-03-25T18:11:38.452Z,8.23
2019-03-25T18:14:09.183Z,8.22
2019-03-25T18:16:40.324Z,8.31
2019-03-25T18:19:12.110Z,8.21
2019-03-25T18:21:44.004Z,8.18
2019-03-25T18:24:14.567Z,8.22
2019-03-25T18:26:45.373Z,8.22
2019-03-25T18:29:17.118Z,8.34
2019-03-25T18:31:48.045Z,8.35
2019-03-25T18:34:20.313Z,8.29
2019-03-25T18:36:50.977Z,8.24
2019-03-25T18:39:22.344Z,8.21
2019-03-25T18:41:52.679Z,8.23
2019-03-25T18:44:23.429Z,8.36
2019-03-25T18:46:54.239Z,8.30
2019-03-25T18:49:25.790Z,8.27
2019-03-25T18:51:58.587Z,8.35
2019-03-25T18:54:28.886Z,8.35
2019-03-25T18:57:01.474Z,8.32
2019-03-25T18:59:32.030Z,8.31
2019-03-25T19:02:02.610Z,8.35
2019-03-25T19:04:33.454Z,8.36
2019-03-25T19:07:04.822Z,8.33
2019-03-25T19:09:35.125Z,8.32
2019-03-25T19:12:05.787Z,8.35
2019-03-25T19:14:36.682Z,8.39
2019-03-25T19:17:07.529Z,8.37
2019-03-25T19:19:38.874Z,8.36
2019-03-25T19:22:12.473Z,8.33
2019-03-25T19:24:42.335Z,8.37
2019-03-25T19:27:13.439Z,8.26
2019-03-25T19:29:44.163Z,8.38
2019-03-25T19:32:15.425Z,8.50
2019-03-25T19:34:46.173Z,8.56
2019-03-25T19:37:18.682Z,8.46
2019-03-25T19:39:49.031Z,8.44
2019-03-25T19:42:20.520Z,8.44
2019-03-25T19:44:51.441Z,8.46
2019-03-25T19:47:22.052Z,8.43
2019-03-25T19:49:52.729Z,8.45
2019-03-25T19:52:23.419Z,8.39
2019-03-25T19:54:54.144Z,8.38
2019-03-25T19:57:24.825Z,8.34
2019-03-25T19:59:55.761Z,8.32
2019-03-25T20:02:26.451Z,7.89
2019-03-25T20:04:57.180Z,8.16
2019-03-25T20:07:28.068Z,7.97
2019-03-25T20:09:58.852Z,7.99
2019-03-25T20:12:30.404Z,7.99
2019-03-25T20:15:00.746Z,7.99
2019-03-25T20:17:33.454Z,8.03
2019-03-25T20:20:05.910Z,8.11
2019-03-25T20:22:36.919Z,8.11
2019-03-25T20:25:07.982Z,8.07
2019-03-25T20:27:38.626Z,8.12
2019-03-25T20:30:10.994Z,8.19
2019-03-25T20:32:41.509Z,8.29
2019-03-25T20:35:12.965Z,8.20
2019-03-25T20:37:43.301Z,8.12
2019-03-25T20:40:14.319Z,8.09
2019-03-25T20:42:44.888Z,8.09
2019-03-25T20:45:18.184Z,7.99
2019-03-25T20:47:48.147Z,8.09
2019-03-25T20:50:19.787Z,7.93
2019-03-25T20:52:50.359Z,7.97
2019-03-25T20:55:20.969Z,7.86
2019-03-25T20:57:52.610Z,7.85
2019-03-25T21:00:28.983Z,7.89
2019-03-25T21:02:59.867Z,7.72
2019-03-25T21:05:31.276Z,7.68
2019-03-25T21:08:01.713Z,7.73
2019-03-25T21:10:32.398Z,7.71
2019-03-25T21:13:03.168Z,7.74
2019-03-25T21:15:33.664Z,7.63
2019-03-25T21:18:04.288Z,7.57
2019-03-25T21:20:35.655Z,7.54
2019-03-25T21:23:06.080Z,7.57
2019-03-25T21:25:37.898Z,7.48
2019-03-25T21:28:08.533Z,7.49
2019-03-25T21:30:47.767Z,7.47
2019-03-25T21:33:12.584Z,7.49
2019-03-25T21:35:43.510Z,7.41
2019-03-25T21:38:14.969Z,7.46
2019-03-25T21:40:45.633Z,7.40
2019-03-25T21:43:16.262Z,7.39
2019-03-25T21:45:47.394Z,7.32
2019-03-25T21:48:19.806Z,7.30
2019-03-25T21:50:51.207Z,7.30
2019-03-25T21:53:22.188Z,7.25
2019-03-25T21:55:55.358Z,7.30
2019-03-25T21:58:25.805Z,7.33
2019-03-25T22:00:56.565Z,7.32
2019-03-25T22:03:27.132Z,7.18
2019-03-25T22:05:58.449Z,7.17
2019-03-25T22:08:28.977Z,7.11
2019-03-25T22:10:59.709Z,7.07
2019-03-25T22:13:30.218Z,7.05
2019-03-25T22:16:02.299Z,6.97
2019-03-25T22:18:32.820Z,6.95
2019-03-25T22:21:07.309Z,6.96
2019-03-25T22:23:37.772Z,6.92
2019-03-25T22:26:08.301Z,6.91
2019-03-25T22:28:40.055Z,6.88
2019-03-25T22:31:10.582Z,6.85
2019-03-25T22:33:41.219Z,6.79
2019-03-25T22:36:11.742Z,6.74
2019-03-25T22:38:42.170Z,6.71
2019-03-25T22:41:14.232Z,6.68
2019-03-25T22:43:46.500Z,6.68
2019-03-25T22:46:17.440Z,6.67
2019-03-25T22:48:49.103Z,6.68
2019-03-25T22:51:21.358Z,6.60
2019-03-25T22:53:51.788Z,6.60
2019-03-25T22:56:22.925Z,6.64
2019-03-25T22:58:54.783Z,6.57
2019-03-25T23:01:25.829Z,6.53
2019-03-25T23:03:56.147Z,6.58
2019-03-25T23:06:26.881Z,6.54
2019-03-25T23:08:57.206Z,6.53
2019-03-25T23:11:27.833Z,6.54
2019-03-25T23:13:58.275Z,6.47
2019-03-25T23:16:29.606Z,6.52
2019-03-25T23:19:00.239Z,6.46
2019-03-25T23:21:30.864Z,6.43
2019-03-25T23:24:01.535Z,6.35
2019-03-25T23:26:32.124Z,6.39
2019-03-25T23:29:03.576Z,6.31
2019-03-25T23:31:34.607Z,6.36
2019-03-25T23:34:07.498Z,6.33
2019-03-25T23:36:39.667Z,6.34
2019-03-25T23:39:10.090Z,6.44
2019-03-25T23:41:40.718Z,6.39
2019-03-25T23:44:12.065Z,6.40
2019-03-25T23:46:43.516Z,6.35
2019-03-25T23:49:13.969Z,6.33
2019-03-25T23:51:44.571Z,6.39
2019-03-25T23:54:17.358Z,6.32
2019-03-25T23:56:47.983Z,6.30
2019-03-25T23:59:19.322Z,6.34
